createdAt,value
2019-02-02T00:02:26.369Z,99.90
2019-02-02T00:04:56.701Z,99.90
2019-02-02T00:07:27.064Z,99.90
2019-02-02T00:09:57.437Z,99.90
2019-02-02T00:12:27.793Z,99.90
2019-02-02T00:14:58.170Z,99.90
2019-02-02T00:17:28.568Z,99.90
2019-02-02T00:19:58.913Z,99.90
2019-02-02T00:22:29.273Z,99.90
2019-02-02T00:24:59.622Z,99.90
2019-02-02T00:27:40.838Z,99.90
2019-02-02T00:30:02.078Z,99.90
2019-02-02T00:32:32.520Z,99.90
2019-02-02T00:35:02.912Z,99.90
2019-02-02T00:37:33.312Z,99.90
2019-02-02T00:40:04.351Z,99.90
2019-02-02T00:42:34.731Z,99.90
2019-02-02T00:45:06.449Z,99.90
2019-02-02T00:47:36.795Z,99.90
2019-02-02T00:50:07.574Z,99.90
2019-02-02T00:52:37.937Z,99.90
2019-02-02T00:55:08.794Z,99.90
2019-02-02T00:57:39.153Z,99.90
2019-02-02T01:00:11.982Z,99.90
2019-02-02T01:02:42.362Z,99.90
2019-02-02T01:05:15.062Z,99.90
2019-02-02T01:07:45.430Z,99.90
2019-02-02T01:10:21.806Z,99.90
2019-02-02T01:12:52.173Z,99.90
2019-02-02T01:15:22.713Z,99.90
2019-02-02T01:17:53.073Z,99.90
2019-02-02T01:20:24.045Z,99.90
2019-02-02T01:22:54.481Z,99.90
2019-02-02T01:25:24.877Z,99.90
2019-02-02T01:28:05.014Z,99.90
2019-02-02T01:30:27.435Z,99.90
2019-02-02T01:32:57.806Z,99.90
2019-02-02T01:35:28.198Z,99.90
2019-02-02T01:37:58.564Z,99.90
2019-02-02T01:40:28.990Z,99.90
2019-02-02T01:42:59.398Z,99.90
2019-02-02T01:45:30.245Z,99.90
2019-02-02T01:48:00.736Z,99.90
2019-02-02T01:50:33.065Z,99.90
2019-02-02T01:53:08.645Z,99.90
2019-02-02T01:55:39.205Z,99.90
2019-02-02T01:58:16.991Z,99.90
2019-02-02T02:00:43.592Z,99.90
2019-02-02T02:03:13.961Z,99.90
2019-02-02T02:05:44.386Z,99.90
2019-02-02T02:08:14.733Z,99.90
2019-02-02T02:10:45.091Z,99.90
2019-02-02T02:13:15.448Z,99.90
2019-02-02T02:15:45.821Z,99.90
2019-02-02T02:18:16.194Z,99.90
2019-02-02T02:20:46.574Z,99.90
2019-02-02T02:23:16.933Z,99.90
2019-02-02T02:25:47.330Z,99.90
2019-02-02T02:28:27.895Z,99.90
2019-02-02T02:30:49.723Z,99.90
2019-02-02T02:33:20.107Z,99.90
2019-02-02T02:35:50.479Z,99.90
2019-02-02T02:38:20.890Z,99.90
2019-02-02T02:40:51.241Z,99.90
2019-02-02T02:43:21.600Z,99.90
2019-02-02T02:45:51.937Z,99.90
2019-02-02T02:48:22.301Z,99.90
2019-02-02T02:50:52.664Z,97.30
2019-02-02T02:53:23.041Z,97.70
2019-02-02T02:55:53.389Z,96.70
2019-02-02T02:58:23.757Z,99.90
2019-02-02T03:00:54.116Z,99.90
2019-02-02T03:03:24.514Z,99.90
2019-02-02T03:05:54.861Z,99.90
2019-02-02T03:08:25.209Z,99.90
2019-02-02T03:10:55.575Z,99.90
2019-02-02T03:13:25.946Z,99.90
2019-02-02T03:15:56.301Z,99.90
2019-02-02T03:18:26.772Z,98.70
2019-02-02T03:20:57.114Z,98.10
2019-02-02T03:23:27.485Z,96.50
2019-02-02T03:25:57.845Z,96.00
2019-02-02T03:28:28.213Z,99.90
2019-02-02T03:30:58.579Z,99.90
2019-02-02T03:33:29.223Z,99.90
2019-02-02T03:35:59.563Z,99.90
2019-02-02T03:38:29.921Z,99.90
2019-02-02T03:41:00.297Z,99.90
2019-02-02T03:43:30.656Z,99.90
2019-02-02T03:46:01.018Z,99.90
2019-02-02T03:48:31.381Z,99.90
2019-02-02T03:51:01.762Z,99.90
2019-02-02T03:53:32.123Z,99.90
2019-02-02T03:56:02.479Z,99.90
2019-02-02T03:58:33.043Z,99.90
2019-02-02T04:01:03.405Z,99.90
2019-02-02T04:03:33.761Z,97.50
2019-02-02T04:06:04.114Z,99.10
2019-02-02T04:08:34.472Z,99.90
2019-02-02T04:11:04.855Z,99.90
2019-02-02T04:13:35.192Z,99.90
2019-02-02T04:16:05.555Z,99.90
2019-02-02T04:18:35.913Z,99.90
2019-02-02T04:21:06.273Z,99.90
2019-02-02T04:23:36.636Z,99.90
2019-02-02T04:26:07.020Z,99.90
2019-02-02T04:28:37.361Z,99.90
2019-02-02T04:31:07.706Z,99.90
2019-02-02T04:33:38.078Z,99.90
2019-02-02T04:36:08.457Z,99.90
2019-02-02T04:38:38.815Z,98.00
2019-02-02T04:41:09.155Z,98.60
2019-02-02T04:43:39.518Z,99.30
2019-02-02T04:46:09.864Z,99.90
2019-02-02T04:48:40.221Z,99.90
2019-02-02T04:51:10.571Z,99.90
2019-02-02T04:53:40.934Z,99.80
2019-02-02T04:56:11.307Z,99.90
2019-02-02T04:58:41.687Z,99.90
2019-02-02T05:01:12.029Z,99.90
2019-02-02T05:03:42.390Z,99.90
2019-02-02T05:06:12.747Z,99.90
2019-02-02T05:08:43.109Z,99.90
2019-02-02T05:11:13.457Z,99.90
2019-02-02T05:13:43.822Z,99.90
2019-02-02T05:16:14.193Z,99.90
2019-02-02T05:18:44.747Z,99.90
2019-02-02T05:21:15.103Z,99.90
2019-02-02T05:23:45.485Z,99.90
2019-02-02T05:26:15.830Z,99.90
2019-02-02T05:28:46.193Z,99.90
2019-02-02T05:31:16.534Z,99.90
2019-02-02T05:33:46.893Z,99.90
2019-02-02T05:36:17.256Z,97.80
2019-02-02T05:38:47.697Z,98.00
2019-02-02T05:41:18.060Z,98.00
2019-02-02T05:43:48.427Z,99.90
2019-02-02T05:46:18.785Z,99.90
2019-02-02T05:48:49.138Z,99.90
2019-02-02T05:51:19.529Z,99.90
2019-02-02T05:53:49.885Z,98.90
2019-02-02T05:56:20.241Z,97.40
2019-02-02T05:58:50.591Z,97.30
2019-02-02T06:01:21.494Z,98.50
2019-02-02T06:03:51.995Z,97.00
2019-02-02T06:06:22.402Z,99.90
2019-02-02T06:08:52.862Z,99.90
2019-02-02T06:11:23.223Z,99.90
2019-02-02T06:13:53.585Z,99.90
2019-02-02T06:16:23.949Z,99.90
2019-02-02T06:18:54.295Z,97.00
2019-02-02T06:21:24.680Z,98.60
2019-02-02T06:23:55.047Z,99.90
2019-02-02T06:26:25.425Z,99.90
2019-02-02T06:28:55.782Z,99.90
2019-02-02T06:31:26.200Z,99.90
2019-02-02T06:33:56.591Z,99.90
2019-02-02T06:36:27.017Z,99.90
2019-02-02T06:38:57.480Z,99.40
2019-02-02T06:41:27.971Z,99.90
2019-02-02T06:43:58.434Z,99.90
2019-02-02T06:46:28.840Z,99.80
2019-02-02T06:49:01.446Z,99.90
2019-02-02T06:51:31.314Z,99.30
2019-02-02T06:54:01.765Z,98.00
2019-02-02T06:56:32.154Z,96.90
2019-02-02T06:59:02.690Z,98.20
2019-02-02T07:01:33.089Z,99.70
2019-02-02T07:04:03.526Z,99.90
2019-02-02T07:06:34.028Z,97.00
2019-02-02T07:09:06.374Z,99.60
2019-02-02T07:11:36.849Z,97.70
2019-02-02T07:14:07.246Z,96.20
2019-02-02T07:16:37.762Z,95.80
2019-02-02T07:19:08.232Z,95.30
2019-02-02T07:21:38.661Z,97.10
2019-02-02T07:24:09.101Z,95.30
2019-02-02T07:26:39.549Z,93.30
2019-02-02T07:29:09.950Z,97.60
2019-02-02T07:31:40.346Z,99.90
2019-02-02T07:34:10.788Z,96.10
2019-02-02T07:36:41.179Z,94.20
2019-02-02T07:39:11.586Z,92.40
2019-02-02T07:41:41.945Z,91.10
2019-02-02T07:44:12.340Z,90.70
2019-02-02T07:46:42.718Z,91.00
2019-02-02T07:49:13.097Z,90.20
2019-02-02T07:51:43.526Z,93.80
2019-02-02T07:54:14.003Z,99.90
2019-02-02T07:56:49.518Z,99.90
2019-02-02T07:59:19.928Z,99.90
2019-02-02T08:01:50.302Z,99.90
2019-02-02T08:04:20.756Z,99.90
2019-02-02T08:06:51.253Z,99.70
2019-02-02T08:09:21.674Z,97.20
2019-02-02T08:11:52.062Z,97.10
2019-02-02T08:14:22.494Z,94.90
2019-02-02T08:16:52.941Z,91.90
2019-02-02T08:19:25.595Z,83.20
2019-02-02T08:21:55.433Z,76.70
2019-02-02T08:24:25.875Z,75.50
2019-02-02T08:26:56.295Z,80.10
2019-02-02T08:29:26.690Z,77.20
2019-02-02T08:31:57.090Z,88.40
2019-02-02T08:34:27.534Z,85.00
2019-02-02T08:36:58.010Z,75.20
2019-02-02T08:39:29.526Z,56.80
2019-02-02T08:42:00.123Z,54.30
2019-02-02T08:44:30.510Z,58.60
2019-02-02T08:47:00.975Z,60.10
2019-02-02T08:49:31.390Z,60.10
2019-02-02T08:52:01.822Z,62.50
2019-02-02T08:54:32.337Z,54.80
2019-02-02T08:57:02.837Z,78.40
2019-02-02T08:59:35.122Z,43.10
2019-02-02T09:02:05.760Z,1.00
2019-02-02T09:04:36.270Z,1.00
2019-02-02T09:07:06.732Z,1.00
2019-02-02T09:09:37.231Z,91.90
2019-02-02T09:12:07.715Z,1.00
2019-02-02T09:14:38.170Z,99.90
2019-02-02T09:17:08.659Z,99.90
2019-02-02T09:19:39.055Z,99.90
2019-02-02T09:22:09.484Z,99.90
2019-02-02T09:24:39.893Z,1.00
2019-02-02T09:27:10.303Z,1.00
2019-02-02T09:29:40.692Z,1.00
2019-02-02T09:32:11.111Z,99.90
2019-02-02T09:34:41.531Z,19.90
2019-02-02T09:37:11.936Z,99.90
2019-02-02T09:39:42.310Z,1.00
2019-02-02T09:42:12.734Z,1.00
2019-02-02T09:44:43.156Z,1.00
2019-02-02T09:47:13.558Z,99.90
2019-02-02T09:49:43.939Z,99.90
2019-02-02T09:52:14.445Z,1.00
2019-02-02T09:54:44.834Z,1.00
2019-02-02T09:57:17.143Z,1.00
2019-02-02T09:59:47.371Z,1.00
2019-02-02T10:02:17.806Z,99.90
2019-02-02T10:04:48.219Z,1.00
2019-02-02T10:07:18.585Z,1.00
2019-02-02T10:09:48.986Z,1.00
2019-02-02T10:12:21.149Z,1.00
2019-02-02T10:14:51.731Z,1.00
2019-02-02T10:17:22.175Z,99.90
2019-02-02T10:19:52.583Z,1.00
2019-02-02T10:22:22.974Z,99.90
2019-02-02T10:24:53.452Z,47.90
2019-02-02T10:27:23.904Z,1.00
2019-02-02T10:29:54.297Z,99.90
2019-02-02T10:32:24.773Z,1.00
2019-02-02T10:34:55.230Z,99.90
2019-02-02T10:37:25.639Z,1.00
2019-02-02T10:39:57.450Z,1.00
2019-02-02T10:42:27.839Z,1.00
2019-02-02T10:44:58.221Z,99.90
2019-02-02T10:47:28.660Z,1.00
2019-02-02T10:49:59.067Z,99.90
2019-02-02T10:52:29.477Z,1.00
2019-02-02T10:54:59.878Z,1.00
2019-02-02T10:57:30.258Z,99.90
2019-02-02T11:00:00.647Z,1.00
2019-02-02T11:02:31.052Z,1.00
2019-02-02T11:05:01.603Z,99.90
2019-02-02T11:07:32.091Z,1.00
2019-02-02T11:10:02.719Z,99.90
2019-02-02T11:12:33.227Z,99.90
2019-02-02T11:15:04.930Z,99.90
2019-02-02T11:17:35.903Z,1.00
2019-02-02T11:20:08.523Z,99.90
2019-02-02T11:22:39.088Z,99.90
2019-02-02T11:25:10.375Z,99.90
2019-02-02T11:27:41.128Z,99.90
2019-02-02T11:30:13.348Z,99.90
2019-02-02T11:32:44.474Z,1.00
2019-02-02T11:35:15.689Z,1.00
2019-02-02T11:37:46.148Z,99.90
2019-02-02T11:40:35.347Z,1.00
2019-02-02T11:43:06.109Z,1.00
2019-02-02T11:45:36.525Z,94.60
2019-02-02T11:48:06.934Z,99.90
2019-02-02T11:50:37.335Z,99.90
2019-02-02T11:53:07.867Z,1.00
2019-02-02T11:55:38.281Z,1.00
2019-02-02T11:58:08.712Z,1.00
2019-02-02T12:00:43.207Z,1.00
2019-02-02T12:03:13.683Z,1.00
2019-02-02T12:05:44.165Z,1.00
2019-02-02T12:08:14.639Z,1.00
2019-02-02T12:10:45.035Z,1.00
2019-02-02T12:13:15.551Z,1.00
2019-02-02T12:15:45.998Z,1.00
2019-02-02T12:18:16.413Z,1.00
2019-02-02T12:20:46.806Z,1.00
2019-02-02T12:23:17.224Z,1.00
2019-02-02T12:25:47.617Z,1.00
2019-02-02T12:28:18.015Z,1.00
2019-02-02T12:30:48.406Z,1.00
2019-02-02T12:33:18.823Z,1.00
2019-02-02T12:35:49.189Z,1.00
2019-02-02T12:38:19.607Z,1.00
2019-02-02T12:40:49.981Z,1.00
2019-02-02T12:43:20.397Z,1.00
2019-02-02T12:45:53.146Z,99.90
2019-02-02T12:48:23.747Z,1.00
2019-02-02T12:50:54.162Z,99.90
2019-02-02T12:53:24.535Z,99.90
2019-02-02T12:55:54.982Z,99.90
2019-02-02T12:58:25.358Z,99.90
2019-02-02T13:00:55.754Z,63.10
2019-02-02T13:03:26.154Z,99.90
2019-02-02T13:05:56.625Z,1.00
2019-02-02T13:08:27.076Z,99.90
2019-02-02T13:10:57.489Z,99.90
2019-02-02T13:13:27.893Z,99.90
2019-02-02T13:15:58.301Z,90.50
2019-02-02T13:18:28.723Z,99.90
2019-02-02T13:20:59.148Z,1.00
2019-02-02T13:23:29.619Z,1.00
2019-02-02T13:26:05.549Z,1.00
2019-02-02T13:28:32.110Z,1.00
2019-02-02T13:31:02.549Z,99.90
2019-02-02T13:33:32.950Z,1.00
2019-02-02T13:36:03.379Z,1.00
2019-02-02T13:38:33.842Z,1.00
2019-02-02T13:41:04.222Z,1.00
2019-02-02T13:43:34.621Z,1.00
2019-02-02T13:46:05.133Z,99.90
2019-02-02T13:48:35.524Z,99.90
2019-02-02T13:51:06.274Z,1.00
2019-02-02T13:53:36.674Z,1.00
2019-02-02T13:56:07.085Z,99.90
2019-02-02T13:58:37.534Z,99.90
2019-02-02T14:01:07.934Z,99.90
2019-02-02T14:03:38.746Z,99.90
2019-02-02T14:06:09.206Z,99.90
2019-02-02T14:08:39.622Z,99.90
2019-02-02T14:11:10.022Z,99.90
2019-02-02T14:13:40.436Z,99.90
2019-02-02T14:16:10.856Z,99.90
2019-02-02T14:18:41.347Z,99.90
2019-02-02T14:21:11.742Z,99.90
2019-02-02T14:23:42.157Z,1.00
2019-02-02T14:26:12.553Z,1.00
2019-02-02T14:28:42.942Z,1.00
2019-02-02T14:31:13.310Z,1.00
2019-02-02T14:33:43.741Z,1.00
2019-02-02T14:36:14.162Z,1.00
2019-02-02T14:38:44.586Z,1.00
2019-02-02T14:41:15.032Z,1.00
2019-02-02T14:43:45.444Z,1.00
2019-02-02T14:46:15.857Z,1.00
2019-02-02T14:48:46.312Z,1.00
2019-02-02T14:51:16.703Z,1.00
2019-02-02T14:53:47.082Z,1.00
2019-02-02T14:56:17.469Z,1.00
2019-02-02T14:58:47.857Z,1.00
2019-02-02T15:01:18.264Z,1.00
2019-02-02T15:03:48.688Z,1.00
2019-02-02T15:06:19.114Z,1.00
2019-02-02T15:08:49.595Z,1.00
2019-02-02T15:11:19.999Z,1.00
2019-02-02T15:13:50.610Z,1.00
2019-02-02T15:16:21.134Z,1.00
2019-02-02T15:18:51.566Z,1.00
2019-02-02T15:21:21.983Z,1.00
2019-02-02T15:23:52.394Z,1.00
2019-02-02T15:26:22.767Z,1.00
2019-02-02T15:28:53.157Z,1.00
2019-02-02T15:31:23.623Z,1.00
2019-02-02T15:33:54.051Z,1.00
2019-02-02T15:36:24.455Z,1.00
2019-02-02T15:38:54.853Z,1.00
2019-02-02T15:41:25.345Z,1.00
2019-02-02T15:43:55.771Z,1.00
2019-02-02T15:46:26.199Z,1.00
2019-02-02T15:48:56.589Z,1.00
2019-02-02T15:51:26.985Z,1.00
2019-02-02T15:53:57.357Z,1.00
2019-02-02T15:56:27.822Z,1.00
2019-02-02T15:58:58.237Z,1.00
2019-02-02T16:01:28.630Z,1.00
2019-02-02T16:03:59.001Z,1.00
2019-02-02T16:06:29.461Z,1.00
2019-02-02T16:08:59.851Z,1.00
2019-02-02T16:11:30.332Z,1.00
2019-02-02T16:14:00.757Z,1.00
2019-02-02T16:16:31.171Z,1.00
2019-02-02T16:19:01.534Z,1.00
2019-02-02T16:21:31.922Z,1.00
2019-02-02T16:24:02.334Z,1.00
2019-02-02T16:26:32.738Z,1.00
2019-02-02T16:29:03.111Z,1.00
2019-02-02T16:31:33.559Z,1.00
2019-02-02T16:34:05.221Z,1.00
2019-02-02T16:36:35.659Z,15.90
2019-02-02T16:39:08.855Z,23.80
2019-02-02T16:41:39.276Z,9.60
2019-02-02T16:44:09.695Z,1.00
2019-02-02T16:46:40.119Z,1.00
2019-02-02T16:49:10.501Z,1.00
2019-02-02T16:51:40.899Z,1.00
2019-02-02T16:54:11.292Z,1.00
2019-02-02T16:56:41.670Z,1.00
2019-02-02T16:59:12.052Z,1.00
2019-02-02T17:01:42.542Z,5.60
2019-02-02T17:04:15.938Z,7.40
2019-02-02T17:06:45.003Z,1.00
2019-02-02T17:09:15.419Z,3.80
2019-02-02T17:11:46.005Z,1.40
2019-02-02T17:14:17.946Z,1.00
2019-02-02T17:16:48.502Z,1.00
2019-02-02T17:19:18.919Z,1.00
2019-02-02T17:21:49.301Z,1.00
2019-02-02T17:24:19.794Z,1.00
2019-02-02T17:26:50.186Z,1.00
2019-02-02T17:29:20.576Z,4.70
2019-02-02T17:31:51.070Z,1.00
2019-02-02T17:34:27.349Z,1.00
2019-02-02T17:36:53.602Z,8.00
2019-02-02T17:39:24.025Z,3.70
2019-02-02T17:41:54.432Z,8.60
2019-02-02T17:44:24.878Z,1.00
2019-02-02T17:46:55.264Z,1.00
2019-02-02T17:49:25.651Z,1.00
2019-02-02T17:51:56.123Z,1.00
2019-02-02T17:54:26.557Z,1.00
2019-02-02T17:56:56.934Z,3.20
2019-02-02T17:59:29.985Z,1.00
2019-02-02T18:01:59.526Z,1.00
2019-02-02T18:04:39.209Z,1.00
2019-02-02T18:07:02.236Z,1.00
2019-02-02T18:09:32.646Z,1.00
2019-02-02T18:12:03.057Z,1.00
2019-02-02T18:14:33.469Z,1.00
2019-02-02T18:17:03.941Z,1.00
2019-02-02T18:19:34.368Z,1.00
2019-02-02T18:22:04.758Z,1.00
2019-02-02T18:24:35.169Z,1.00
2019-02-02T18:27:05.574Z,2.50
2019-02-02T18:29:36.068Z,2.50
2019-02-02T18:32:13.128Z,2.60
2019-02-02T18:34:49.926Z,1.00
2019-02-02T18:37:10.928Z,1.00
2019-02-02T18:39:41.302Z,7.90
2019-02-02T18:42:11.787Z,16.00
2019-02-02T18:44:42.205Z,24.40
2019-02-02T18:47:12.670Z,35.80
2019-02-02T18:49:43.067Z,35.20
2019-02-02T18:52:13.518Z,34.40
2019-02-02T18:54:43.912Z,31.90
2019-02-02T18:57:15.508Z,27.10
2019-02-02T18:59:45.904Z,35.40
2019-02-02T19:02:16.359Z,42.30
2019-02-02T19:04:46.770Z,40.20
2019-02-02T19:07:17.201Z,38.70
2019-02-02T19:09:47.606Z,38.60
2019-02-02T19:12:18.026Z,36.30
2019-02-02T19:14:48.453Z,42.50
2019-02-02T19:17:18.897Z,36.50
2019-02-02T19:19:49.304Z,37.80
2019-02-02T19:22:19.726Z,36.10
2019-02-02T19:24:50.174Z,37.30
2019-02-02T19:27:20.651Z,36.00
2019-02-02T19:29:51.056Z,38.10
2019-02-02T19:32:21.455Z,37.70
2019-02-02T19:34:51.978Z,38.90
2019-02-02T19:37:22.376Z,36.50
2019-02-02T19:39:52.764Z,36.80
2019-02-02T19:42:23.282Z,42.90
2019-02-02T19:44:53.701Z,40.90
2019-02-02T19:47:24.114Z,36.90
2019-02-02T19:49:54.534Z,40.60
2019-02-02T19:52:24.937Z,45.40
2019-02-02T19:54:55.359Z,41.40
2019-02-02T19:57:25.716Z,34.90
2019-02-02T19:59:56.228Z,34.60
2019-02-02T20:02:26.594Z,35.60
2019-02-02T20:04:56.995Z,36.10
2019-02-02T20:07:27.426Z,35.40
2019-02-02T20:09:57.848Z,39.10
2019-02-02T20:12:28.222Z,43.30
2019-02-02T20:14:58.640Z,43.10
2019-02-02T20:17:29.044Z,37.90
2019-02-02T20:19:59.452Z,37.00
2019-02-02T20:22:29.878Z,35.40
2019-02-02T20:25:00.541Z,35.70
2019-02-02T20:27:31.102Z,38.70
2019-02-02T20:30:01.584Z,36.00
2019-02-02T20:32:32.027Z,34.40
2019-02-02T20:35:02.430Z,34.70
2019-02-02T20:37:32.906Z,28.10
2019-02-02T20:40:03.317Z,31.20
2019-02-02T20:42:33.735Z,31.90
2019-02-02T20:45:04.663Z,30.90
2019-02-02T20:47:35.109Z,35.20
2019-02-02T20:50:07.828Z,34.50
2019-02-02T20:52:47.023Z,32.50
2019-02-02T20:55:12.890Z,36.70
2019-02-02T20:57:45.891Z,43.50
2019-02-02T21:00:17.968Z,40.90
2019-02-02T21:02:48.491Z,44.70
2019-02-02T21:05:18.987Z,38.80
2019-02-02T21:07:49.505Z,42.70
2019-02-02T21:10:21.586Z,43.90
2019-02-02T21:12:52.088Z,35.40
2019-02-02T21:15:22.604Z,31.40
2019-02-02T21:17:53.230Z,35.20
2019-02-02T21:20:25.904Z,33.00
2019-02-02T21:22:56.359Z,28.60
2019-02-02T21:25:26.790Z,28.20
2019-02-02T21:27:57.293Z,33.10
2019-02-02T21:30:29.848Z,29.90
2019-02-02T21:33:00.298Z,30.40
2019-02-02T21:35:30.791Z,26.60
2019-02-02T21:38:01.283Z,30.00
2019-02-02T21:40:33.302Z,32.20
2019-02-02T21:43:03.757Z,41.10
2019-02-02T21:45:34.169Z,33.80
2019-02-02T21:48:04.797Z,35.00
2019-02-02T21:50:35.278Z,37.90
2019-02-02T21:53:05.917Z,39.10
2019-02-02T21:55:36.390Z,41.30
2019-02-02T21:58:07.070Z,51.40
2019-02-02T22:00:42.136Z,51.70
2019-02-02T22:03:12.649Z,50.70
2019-02-02T22:05:43.124Z,47.30
2019-02-02T22:08:13.581Z,51.90
2019-02-02T22:10:44.402Z,55.80
2019-02-02T22:13:15.310Z,59.30
2019-02-02T22:15:45.753Z,62.90
2019-02-02T22:18:16.207Z,57.90
2019-02-02T22:20:46.710Z,56.30
2019-02-02T22:23:18.038Z,57.80
2019-02-02T22:25:48.566Z,58.60
2019-02-02T22:28:18.986Z,58.80
2019-02-02T22:30:49.497Z,63.90
2019-02-02T22:33:19.875Z,71.00
2019-02-02T22:35:50.365Z,65.00
2019-02-02T22:38:21.076Z,66.80
2019-02-02T22:40:51.519Z,68.60
2019-02-02T22:43:22.022Z,73.30
2019-02-02T22:45:52.427Z,75.90
2019-02-02T22:48:22.871Z,67.60
2019-02-02T22:50:53.353Z,65.20
2019-02-02T22:53:23.777Z,63.30
2019-02-02T22:55:54.223Z,71.60
2019-02-02T22:58:24.679Z,68.20
2019-02-02T23:01:48.226Z,71.10
2019-02-02T23:05:02.717Z,62.60
2019-02-02T23:08:04.978Z,63.70
2019-02-02T23:10:58.229Z,71.20
2019-02-02T23:14:09.841Z,76.00
2019-02-02T23:16:40.275Z,78.20
2019-02-02T23:19:10.823Z,68.70
2019-02-02T23:21:41.271Z,68.90
2019-02-02T23:24:11.695Z,75.30
2019-02-02T23:26:42.104Z,73.30
2019-02-02T23:29:14.965Z,71.00
2019-02-02T23:31:45.419Z,68.00
2019-02-02T23:34:15.977Z,65.00
2019-02-02T23:36:52.620Z,73.40
2019-02-02T23:39:18.677Z,66.40
2019-02-02T23:41:49.062Z,68.90
2019-02-02T23:44:19.544Z,64.10
2019-02-02T23:46:50.038Z,67.40
2019-02-02T23:49:20.445Z,75.80
2019-02-02T23:51:50.900Z,80.60
2019-02-02T23:54:21.339Z,84.50
2019-02-02T23:56:51.798Z,90.20
2019-02-02T23:59:22.196Z,83.50
